sensor_id;sensor_type;location;lat;lon;timestamp;P1;durP1;ratioP1;P2;durP2;ratioP2
16957;SDS011;8595;52.542;11.974;2023-03-16T00:01:22;9.77;;;4.13;;
16957;SDS011;8595;52.542;11.974;2023-03-16T00:03:50;9.83;;;3.47;;
16957;SDS011;8595;52.542;11.974;2023-03-16T00:06:17;13.77;;;3.93;;
16957;SDS011;8595;52.542;11.974;2023-03-16T00:08:44;8.73;;;3.87;;
16957;SDS011;8595;52.542;11.974;2023-03-16T00:11:10;6.37;;;3.20;;
16957;SDS011;8595;52.542;11.974;2023-03-16T00:13:37;9.37;;;3.13;;
16957;SDS011;8595;52.542;11.974;2023-03-16T00:16:04;8.37;;;2.73;;
16957;SDS011;8595;52.542;11.974;2023-03-16T00:18:31;8.63;;;2.90;;
16957;SDS011;8595;52.542;11.974;2023-03-16T00:21:04;9.63;;;3.27;;
16957;SDS011;8595;52.542;11.974;2023-03-16T00:23:31;10.50;;;3.17;;
16957;SDS011;8595;52.542;11.974;2023-03-16T00:26:00;7.40;;;3.17;;
16957;SDS011;8595;52.542;11.974;2023-03-16T00:28:28;5.50;;;3.17;;
16957;SDS011;8595;52.542;11.974;2023-03-16T00:30:58;8.80;;;3.07;;
16957;SDS011;8595;52.542;11.974;2023-03-16T00:33:25;9.60;;;3.33;;
16957;SDS011;8595;52.542;11.974;2023-03-16T00:35:52;7.77;;;3.00;;
16957;SDS011;8595;52.542;11.974;2023-03-16T00:38:27;10.87;;;3.63;;
16957;SDS011;8595;52.542;11.974;2023-03-16T00:40:56;6.57;;;2.90;;
16957;SDS011;8595;52.542;11.974;2023-03-16T00:43:23;7.73;;;3.07;;
16957;SDS011;8595;52.542;11.974;2023-03-16T00:45:56;10.00;;;2.93;;
16957;SDS011;8595;52.542;11.974;2023-03-16T00:48:23;5.77;;;3.30;;
16957;SDS011;8595;52.542;11.974;2023-03-16T00:50:50;6.97;;;3.13;;
16957;SDS011;8595;52.542;11.974;2023-03-16T00:53:18;7.73;;;3.07;;
16957;SDS011;8595;52.542;11.974;2023-03-16T00:55:47;9.27;;;3.70;;
16957;SDS011;8595;52.542;11.974;2023-03-16T00:58:14;10.60;;;3.70;;
16957;SDS011;8595;52.542;11.974;2023-03-16T01:00:40;11.00;;;3.50;;
16957;SDS011;8595;52.542;11.974;2023-03-16T01:03:07;8.17;;;2.77;;
16957;SDS011;8595;52.542;11.974;2023-03-16T01:05:38;8.57;;;3.10;;
16957;SDS011;8595;52.542;11.974;2023-03-16T01:08:05;15.47;;;3.70;;
16957;SDS011;8595;52.542;11.974;2023-03-16T01:10:32;10.43;;;3.40;;
16957;SDS011;8595;52.542;11.974;2023-03-16T01:13:01;7.00;;;3.17;;
16957;SDS011;8595;52.542;11.974;2023-03-16T01:15:28;11.87;;;3.67;;
16957;SDS011;8595;52.542;11.974;2023-03-16T01:17:55;5.20;;;3.03;;
16957;SDS011;8595;52.542;11.974;2023-03-16T01:20:21;6.23;;;3.67;;
16957;SDS011;8595;52.542;11.974;2023-03-16T01:22:48;6.60;;;2.80;;
16957;SDS011;8595;52.542;11.974;2023-03-16T01:25:15;7.83;;;3.23;;
16957;SDS011;8595;52.542;11.974;2023-03-16T01:27:42;11.90;;;3.30;;
16957;SDS011;8595;52.542;11.974;2023-03-16T01:30:10;10.13;;;3.70;;
16957;SDS011;8595;52.542;11.974;2023-03-16T01:32:38;7.10;;;2.80;;
16957;SDS011;8595;52.542;11.974;2023-03-16T01:35:06;8.87;;;3.00;;
16957;SDS011;8595;52.542;11.974;2023-03-16T01:37:33;6.53;;;3.17;;
16957;SDS011;8595;52.542;11.974;2023-03-16T01:40:00;7.97;;;3.10;;
16957;SDS011;8595;52.542;11.974;2023-03-16T01:42:30;5.30;;;2.90;;
16957;SDS011;8595;52.542;11.974;2023-03-16T01:44:58;7.73;;;3.00;;
16957;SDS011;8595;52.542;11.974;2023-03-16T01:47:27;9.63;;;3.20;;
16957;SDS011;8595;52.542;11.974;2023-03-16T01:49:55;10.97;;;3.13;;
16957;SDS011;8595;52.542;11.974;2023-03-16T01:52:23;7.03;;;3.13;;
16957;SDS011;8595;52.542;11.974;2023-03-16T01:54:53;7.87;;;3.50;;
16957;SDS011;8595;52.542;11.974;2023-03-16T01:57:23;13.17;;;3.60;;
16957;SDS011;8595;52.542;11.974;2023-03-16T01:59:55;6.07;;;3.20;;
16957;SDS011;8595;52.542;11.974;2023-03-16T02:02:44;10.77;;;3.30;;
16957;SDS011;8595;52.542;11.974;2023-03-16T02:05:14;9.13;;;3.57;;
16957;SDS011;8595;52.542;11.974;2023-03-16T02:07:45;11.40;;;3.60;;
16957;SDS011;8595;52.542;11.974;2023-03-16T02:10:14;7.77;;;3.43;;
16957;SDS011;8595;52.542;11.974;2023-03-16T02:12:43;9.87;;;3.57;;
16957;SDS011;8595;52.542;11.974;2023-03-16T02:15:11;12.10;;;3.83;;
16957;SDS011;8595;52.542;11.974;2023-03-16T02:17:38;9.50;;;3.37;;
16957;SDS011;8595;52.542;11.974;2023-03-16T02:20:13;12.80;;;3.80;;
16957;SDS011;8595;52.542;11.974;2023-03-16T02:22:49;10.57;;;3.77;;
16957;SDS011;8595;52.542;11.974;2023-03-16T02:25:18;7.13;;;4.13;;
16957;SDS011;8595;52.542;11.974;2023-03-16T02:27:50;6.03;;;3.87;;
16957;SDS011;8595;52.542;11.974;2023-03-16T02:30:23;14.93;;;4.40;;
16957;SDS011;8595;52.542;11.974;2023-03-16T02:32:50;9.17;;;3.83;;
16957;SDS011;8595;52.542;11.974;2023-03-16T02:35:18;9.30;;;3.57;;
16957;SDS011;8595;52.542;11.974;2023-03-16T02:37:46;9.63;;;4.10;;
16957;SDS011;8595;52.542;11.974;2023-03-16T02:40:15;8.20;;;3.80;;
16957;SDS011;8595;52.542;11.974;2023-03-16T02:42:47;8.37;;;3.80;;
16957;SDS011;8595;52.542;11.974;2023-03-16T02:45:20;9.23;;;3.97;;
16957;SDS011;8595;52.542;11.974;2023-03-16T02:47:50;10.57;;;4.40;;
16957;SDS011;8595;52.542;11.974;2023-03-16T02:50:18;10.03;;;3.23;;
16957;SDS011;8595;52.542;11.974;2023-03-16T02:52:45;12.00;;;3.50;;
16957;SDS011;8595;52.542;11.974;2023-03-16T02:55:13;9.47;;;4.10;;
16957;SDS011;8595;52.542;11.974;2023-03-16T02:57:40;10.37;;;4.00;;
16957;SDS011;8595;52.542;11.974;2023-03-16T03:00:07;7.77;;;3.50;;
16957;SDS011;8595;52.542;11.974;2023-03-16T03:02:39;5.37;;;3.43;;
16957;SDS011;8595;52.542;11.974;2023-03-16T03:05:06;14.23;;;3.80;;
16957;SDS011;8595;52.542;11.974;2023-03-16T03:07:33;7.80;;;3.63;;
16957;SDS011;8595;52.542;11.974;2023-03-16T03:10:00;9.07;;;3.50;;
16957;SDS011;8595;52.542;11.974;2023-03-16T03:12:29;12.67;;;3.90;;
16957;SDS011;8595;52.542;11.974;2023-03-16T03:14:56;10.23;;;4.47;;
16957;SDS011;8595;52.542;11.974;2023-03-16T03:17:23;12.37;;;4.17;;
16957;SDS011;8595;52.542;11.974;2023-03-16T03:19:56;8.47;;;4.00;;
16957;SDS011;8595;52.542;11.974;2023-03-16T03:22:23;11.97;;;3.50;;
16957;SDS011;8595;52.542;11.974;2023-03-16T03:24:50;13.80;;;5.03;;
16957;SDS011;8595;52.542;11.974;2023-03-16T03:27:17;6.23;;;3.13;;
16957;SDS011;8595;52.542;11.974;2023-03-16T03:29:46;12.40;;;4.90;;
16957;SDS011;8595;52.542;11.974;2023-03-16T03:32:13;9.67;;;4.17;;
16957;SDS011;8595;52.542;11.974;2023-03-16T03:34:40;11.03;;;4.00;;
16957;SDS011;8595;52.542;11.974;2023-03-16T03:37:08;8.60;;;4.80;;
16957;SDS011;8595;52.542;11.974;2023-03-16T03:39:36;10.07;;;4.40;;
16957;SDS011;8595;52.542;11.974;2023-03-16T03:42:04;6.60;;;4.17;;
16957;SDS011;8595;52.542;11.974;2023-03-16T03:44:32;5.90;;;4.00;;
16957;SDS011;8595;52.542;11.974;2023-03-16T03:46:59;8.27;;;4.53;;
16957;SDS011;8595;52.542;11.974;2023-03-16T03:49:27;7.87;;;4.97;;
16957;SDS011;8595;52.542;11.974;2023-03-16T03:51:53;9.17;;;4.37;;
16957;SDS011;8595;52.542;11.974;2023-03-16T03:54:24;12.63;;;4.57;;
16957;SDS011;8595;52.542;11.974;2023-03-16T03:56:51;14.93;;;4.40;;
16957;SDS011;8595;52.542;11.974;2023-03-16T03:59:17;7.03;;;3.47;;
16957;SDS011;8595;52.542;11.974;2023-03-16T04:01:44;9.17;;;4.00;;
16957;SDS011;8595;52.542;11.974;2023-03-16T04:04:11;8.07;;;3.93;;
16957;SDS011;8595;52.542;11.974;2023-03-16T04:06:37;8.43;;;4.00;;
16957;SDS011;8595;52.542;11.974;2023-03-16T04:09:05;11.10;;;4.00;;
16957;SDS011;8595;52.542;11.974;2023-03-16T04:11:34;10.33;;;4.40;;
16957;SDS011;8595;52.542;11.974;2023-03-16T04:14:00;8.73;;;4.50;;
16957;SDS011;8595;52.542;11.974;2023-03-16T04:16:28;6.93;;;3.43;;
16957;SDS011;8595;52.542;11.974;2023-03-16T04:18:55;14.60;;;4.23;;
16957;SDS011;8595;52.542;11.974;2023-03-16T04:21:22;11.53;;;4.37;;
16957;SDS011;8595;52.542;11.974;2023-03-16T04:23:49;10.70;;;4.77;;
16957;SDS011;8595;52.542;11.974;2023-03-16T04:26:18;8.50;;;4.93;;
16957;SDS011;8595;52.542;11.974;2023-03-16T04:28:47;8.87;;;4.17;;
16957;SDS011;8595;52.542;11.974;2023-03-16T04:31:13;8.83;;;4.60;;
16957;SDS011;8595;52.542;11.974;2023-03-16T04:33:40;13.63;;;4.97;;
16957;SDS011;8595;52.542;11.974;2023-03-16T04:36:07;6.53;;;4.40;;
16957;SDS011;8595;52.542;11.974;2023-03-16T04:38:34;10.13;;;3.80;;
16957;SDS011;8595;52.542;11.974;2023-03-16T04:41:01;7.63;;;4.33;;
16957;SDS011;8595;52.542;11.974;2023-03-16T04:43:30;10.00;;;4.37;;
16957;SDS011;8595;52.542;11.974;2023-03-16T04:45:59;9.87;;;4.37;;
16957;SDS011;8595;52.542;11.974;2023-03-16T04:48:27;13.10;;;4.40;;
16957;SDS011;8595;52.542;11.974;2023-03-16T04:50:53;14.40;;;4.70;;
16957;SDS011;8595;52.542;11.974;2023-03-16T04:53:20;10.67;;;4.70;;
16957;SDS011;8595;52.542;11.974;2023-03-16T04:55:47;10.97;;;4.63;;
16957;SDS011;8595;52.542;11.974;2023-03-16T04:58:14;9.03;;;4.47;;
16957;SDS011;8595;52.542;11.974;2023-03-16T05:00:41;9.37;;;4.30;;
16957;SDS011;8595;52.542;11.974;2023-03-16T05:03:09;9.77;;;5.07;;
16957;SDS011;8595;52.542;11.974;2023-03-16T05:05:36;8.27;;;4.23;;
16957;SDS011;8595;52.542;11.974;2023-03-16T05:08:03;9.77;;;3.93;;
16957;SDS011;8595;52.542;11.974;2023-03-16T05:10:30;12.17;;;4.33;;
16957;SDS011;8595;52.542;11.974;2023-03-16T05:12:57;7.20;;;4.10;;
16957;SDS011;8595;52.542;11.974;2023-03-16T05:15:25;7.97;;;4.50;;
16957;SDS011;8595;52.542;11.974;2023-03-16T05:17:52;8.70;;;4.30;;
16957;SDS011;8595;52.542;11.974;2023-03-16T05:20:21;5.77;;;4.60;;
16957;SDS011;8595;52.542;11.974;2023-03-16T05:22:48;9.90;;;4.30;;
16957;SDS011;8595;52.542;11.974;2023-03-16T05:25:15;9.70;;;5.40;;
16957;SDS011;8595;52.542;11.974;2023-03-16T05:27:43;7.10;;;4.73;;
16957;SDS011;8595;52.542;11.974;2023-03-16T05:30:12;8.53;;;5.00;;
16957;SDS011;8595;52.542;11.974;2023-03-16T05:32:40;9.97;;;5.97;;
16957;SDS011;8595;52.542;11.974;2023-03-16T05:35:07;10.23;;;4.67;;
16957;SDS011;8595;52.542;11.974;2023-03-16T05:37:39;8.37;;;4.23;;
16957;SDS011;8595;52.542;11.974;2023-03-16T05:40:06;9.90;;;4.63;;
16957;SDS011;8595;52.542;11.974;2023-03-16T05:42:41;10.87;;;5.30;;
16957;SDS011;8595;52.542;11.974;2023-03-16T05:45:08;10.27;;;4.70;;
16957;SDS011;8595;52.542;11.974;2023-03-16T05:47:36;7.73;;;4.90;;
16957;SDS011;8595;52.542;11.974;2023-03-16T05:50:03;8.37;;;4.30;;
16957;SDS011;8595;52.542;11.974;2023-03-16T05:52:33;11.83;;;4.13;;
16957;SDS011;8595;52.542;11.974;2023-03-16T05:55:01;10.80;;;4.30;;
16957;SDS011;8595;52.542;11.974;2023-03-16T05:57:29;8.40;;;5.20;;
16957;SDS011;8595;52.542;11.974;2023-03-16T05:59:56;9.33;;;4.53;;
16957;SDS011;8595;52.542;11.974;2023-03-16T06:02:23;10.90;;;4.50;;
16957;SDS011;8595;52.542;11.974;2023-03-16T06:04:50;7.73;;;4.87;;
16957;SDS011;8595;52.542;11.974;2023-03-16T06:07:17;6.23;;;4.93;;
16957;SDS011;8595;52.542;11.974;2023-03-16T06:09:44;9.57;;;4.40;;
16957;SDS011;8595;52.542;11.974;2023-03-16T06:12:13;8.50;;;4.97;;
16957;SDS011;8595;52.542;11.974;2023-03-16T06:14:40;10.23;;;4.73;;
16957;SDS011;8595;52.542;11.974;2023-03-16T06:17:06;12.70;;;4.93;;
16957;SDS011;8595;52.542;11.974;2023-03-16T06:19:33;9.33;;;4.77;;
16957;SDS011;8595;52.542;11.974;2023-03-16T06:22:00;8.40;;;4.10;;
16957;SDS011;8595;52.542;11.974;2023-03-16T06:24:26;11.63;;;4.47;;
16957;SDS011;8595;52.542;11.974;2023-03-16T06:26:53;10.23;;;5.17;;
16957;SDS011;8595;52.542;11.974;2023-03-16T06:29:21;14.23;;;4.87;;
16957;SDS011;8595;52.542;11.974;2023-03-16T06:31:48;8.97;;;4.97;;
16957;SDS011;8595;52.542;11.974;2023-03-16T06:34:16;11.00;;;4.17;;
16957;SDS011;8595;52.542;11.974;2023-03-16T06:36:43;13.27;;;4.73;;
16957;SDS011;8595;52.542;11.974;2023-03-16T06:39:10;9.93;;;4.40;;
16957;SDS011;8595;52.542;11.974;2023-03-16T06:41:38;11.17;;;4.60;;
16957;SDS011;8595;52.542;11.974;2023-03-16T06:44:06;9.47;;;4.50;;
16957;SDS011;8595;52.542;11.974;2023-03-16T06:46:35;8.87;;;4.20;;
16957;SDS011;8595;52.542;11.974;2023-03-16T06:49:01;7.87;;;4.60;;
16957;SDS011;8595;52.542;11.974;2023-03-16T06:51:28;10.07;;;4.20;;
16957;SDS011;8595;52.542;11.974;2023-03-16T06:53:56;8.33;;;4.77;;
16957;SDS011;8595;52.542;11.974;2023-03-16T06:56:23;9.50;;;4.53;;
16957;SDS011;8595;52.542;11.974;2023-03-16T06:58:51;13.83;;;5.50;;
16957;SDS011;8595;52.542;11.974;2023-03-16T07:01:18;6.50;;;4.53;;
16957;SDS011;8595;52.542;11.974;2023-03-16T07:03:46;12.07;;;5.00;;
16957;SDS011;8595;52.542;11.974;2023-03-16T07:06:13;16.33;;;4.40;;
16957;SDS011;8595;52.542;11.974;2023-03-16T07:08:40;7.07;;;4.00;;
16957;SDS011;8595;52.542;11.974;2023-03-16T07:11:07;7.63;;;4.17;;
16957;SDS011;8595;52.542;11.974;2023-03-16T07:13:34;13.03;;;4.50;;
16957;SDS011;8595;52.542;11.974;2023-03-16T07:16:01;12.07;;;5.10;;
16957;SDS011;8595;52.542;11.974;2023-03-16T07:18:28;6.77;;;4.27;;
16957;SDS011;8595;52.542;11.974;2023-03-16T07:20:57;7.73;;;4.40;;
16957;SDS011;8595;52.542;11.974;2023-03-16T07:23:23;7.67;;;4.30;;
16957;SDS011;8595;52.542;11.974;2023-03-16T07:25:51;9.03;;;5.20;;
16957;SDS011;8595;52.542;11.974;2023-03-16T07:28:18;8.60;;;4.47;;
16957;SDS011;8595;52.542;11.974;2023-03-16T07:30:45;7.67;;;4.33;;
16957;SDS011;8595;52.542;11.974;2023-03-16T07:33:12;10.70;;;4.50;;
16957;SDS011;8595;52.542;11.974;2023-03-16T07:35:39;10.27;;;4.93;;
16957;SDS011;8595;52.542;11.974;2023-03-16T07:38:07;13.80;;;4.87;;
16957;SDS011;8595;52.542;11.974;2023-03-16T07:40:36;11.87;;;4.93;;
16957;SDS011;8595;52.542;11.974;2023-03-16T07:43:04;7.67;;;3.93;;
16957;SDS011;8595;52.542;11.974;2023-03-16T07:45:30;7.87;;;3.57;;
16957;SDS011;8595;52.542;11.974;2023-03-16T07:47:57;8.37;;;3.80;;
16957;SDS011;8595;52.542;11.974;2023-03-16T07:50:23;8.67;;;4.10;;
16957;SDS011;8595;52.542;11.974;2023-03-16T07:52:50;10.07;;;4.10;;
16957;SDS011;8595;52.542;11.974;2023-03-16T07:55:19;6.97;;;3.87;;
16957;SDS011;8595;52.542;11.974;2023-03-16T07:57:46;6.82;;;3.17;;
16957;SDS011;8595;52.542;11.974;2023-03-16T08:00:13;10.18;;;3.95;;
16957;SDS011;8595;52.542;11.974;2023-03-16T08:02:40;6.82;;;3.40;;
16957;SDS011;8595;52.542;11.974;2023-03-16T08:05:07;11.65;;;4.43;;
16957;SDS011;8595;52.542;11.974;2023-03-16T08:07:35;9.70;;;3.65;;
16957;SDS011;8595;52.542;11.974;2023-03-16T08:10:02;6.50;;;3.63;;
16957;SDS011;8595;52.542;11.974;2023-03-16T08:12:30;9.15;;;3.47;;
16957;SDS011;8595;52.542;11.974;2023-03-16T08:14:57;8.60;;;3.85;;
16957;SDS011;8595;52.542;11.974;2023-03-16T08:17:24;10.88;;;3.97;;
16957;SDS011;8595;52.542;11.974;2023-03-16T08:19:50;9.85;;;3.53;;
16957;SDS011;8595;52.542;11.974;2023-03-16T08:22:17;7.80;;;3.83;;
16957;SDS011;8595;52.542;11.974;2023-03-16T08:24:44;8.13;;;3.47;;
16957;SDS011;8595;52.542;11.974;2023-03-16T08:27:11;7.22;;;4.78;;
16957;SDS011;8595;52.542;11.974;2023-03-16T08:29:41;9.15;;;4.15;;
16957;SDS011;8595;52.542;11.974;2023-03-16T08:32:08;7.38;;;4.07;;
16957;SDS011;8595;52.542;11.974;2023-03-16T08:34:35;7.43;;;3.55;;
16957;SDS011;8595;52.542;11.974;2023-03-16T08:37:03;6.90;;;3.65;;
16957;SDS011;8595;52.542;11.974;2023-03-16T08:39:30;6.68;;;3.65;;
16957;SDS011;8595;52.542;11.974;2023-03-16T08:41:59;8.85;;;3.78;;
16957;SDS011;8595;52.542;11.974;2023-03-16T08:44:26;7.65;;;3.30;;
16957;SDS011;8595;52.542;11.974;2023-03-16T08:46:54;8.43;;;3.65;;
16957;SDS011;8595;52.542;11.974;2023-03-16T08:49:21;8.63;;;3.30;;
16957;SDS011;8595;52.542;11.974;2023-03-16T08:51:48;8.45;;;3.60;;
16957;SDS011;8595;52.542;11.974;2023-03-16T08:54:15;7.90;;;3.90;;
16957;SDS011;8595;52.542;11.974;2023-03-16T08:56:41;10.18;;;3.45;;
16957;SDS011;8595;52.542;11.974;2023-03-16T08:59:08;5.40;;;2.88;;
16957;SDS011;8595;52.542;11.974;2023-03-16T09:01:35;8.18;;;3.90;;
16957;SDS011;8595;52.542;11.974;2023-03-16T09:04:04;4.13;;;2.40;;
16957;SDS011;8595;52.542;11.974;2023-03-16T09:06:31;5.55;;;3.13;;
16957;SDS011;8595;52.542;11.974;2023-03-16T09:08:57;6.47;;;3.70;;
16957;SDS011;8595;52.542;11.974;2023-03-16T09:11:24;8.32;;;3.38;;
16957;SDS011;8595;52.542;11.974;2023-03-16T09:13:54;7.30;;;3.30;;
16957;SDS011;8595;52.542;11.974;2023-03-16T09:16:21;6.00;;;3.30;;
16957;SDS011;8595;52.542;11.974;2023-03-16T09:18:49;12.35;;;3.40;;
16957;SDS011;8595;52.542;11.974;2023-03-16T09:21:17;7.70;;;3.20;;
16957;SDS011;8595;52.542;11.974;2023-03-16T09:23:44;5.28;;;2.78;;
16957;SDS011;8595;52.542;11.974;2023-03-16T09:26:11;8.25;;;2.42;;
16957;SDS011;8595;52.542;11.974;2023-03-16T09:28:39;6.88;;;3.10;;
16957;SDS011;8595;52.542;11.974;2023-03-16T09:31:07;5.40;;;2.85;;
16957;SDS011;8595;52.542;11.974;2023-03-16T09:33:35;6.22;;;2.80;;
16957;SDS011;8595;52.542;11.974;2023-03-16T09:36:02;7.32;;;3.30;;
16957;SDS011;8595;52.542;11.974;2023-03-16T09:38:30;5.00;;;2.75;;
16957;SDS011;8595;52.542;11.974;2023-03-16T09:40:58;9.02;;;3.38;;
16957;SDS011;8595;52.542;11.974;2023-03-16T09:43:31;7.65;;;3.60;;
16957;SDS011;8595;52.542;11.974;2023-03-16T09:46:12;7.97;;;3.22;;
16957;SDS011;8595;52.542;11.974;2023-03-16T09:48:51;4.88;;;2.42;;
16957;SDS011;8595;52.542;11.974;2023-03-16T09:51:22;5.30;;;2.40;;
16957;SDS011;8595;52.542;11.974;2023-03-16T09:54:02;4.38;;;2.10;;
16957;SDS011;8595;52.542;11.974;2023-03-16T09:56:33;9.05;;;2.70;;
16957;SDS011;8595;52.542;11.974;2023-03-16T09:59:07;4.85;;;2.10;;
16957;SDS011;8595;52.542;11.974;2023-03-16T10:01:38;5.50;;;2.00;;
16957;SDS011;8595;52.542;11.974;2023-03-16T10:04:14;8.90;;;2.47;;
16957;SDS011;8595;52.542;11.974;2023-03-16T10:06:47;7.50;;;2.60;;
16957;SDS011;8595;52.542;11.974;2023-03-16T10:09:25;5.47;;;1.88;;
16957;SDS011;8595;52.542;11.974;2023-03-16T10:11:57;5.32;;;2.10;;
16957;SDS011;8595;52.542;11.974;2023-03-16T10:14:27;6.43;;;2.15;;
16957;SDS011;8595;52.542;11.974;2023-03-16T10:16:59;7.60;;;1.83;;
16957;SDS011;8595;52.542;11.974;2023-03-16T10:19:32;6.65;;;2.47;;
16957;SDS011;8595;52.542;11.974;2023-03-16T10:22:07;3.13;;;1.80;;
16957;SDS011;8595;52.542;11.974;2023-03-16T10:24:47;3.22;;;1.63;;
16957;SDS011;8595;52.542;11.974;2023-03-16T10:27:23;5.20;;;2.22;;
16957;SDS011;8595;52.542;11.974;2023-03-16T10:29:53;6.10;;;2.17;;
16957;SDS011;8595;52.542;11.974;2023-03-16T10:32:20;5.20;;;2.35;;
16957;SDS011;8595;52.542;11.974;2023-03-16T10:34:51;7.10;;;2.05;;
16957;SDS011;8595;52.542;11.974;2023-03-16T10:37:22;5.85;;;2.47;;
16957;SDS011;8595;52.542;11.974;2023-03-16T10:39:51;7.38;;;2.08;;
16957;SDS011;8595;52.542;11.974;2023-03-16T10:42:19;2.33;;;1.58;;
16957;SDS011;8595;52.542;11.974;2023-03-16T10:44:46;6.63;;;2.08;;
16957;SDS011;8595;52.542;11.974;2023-03-16T10:47:17;5.53;;;2.30;;
16957;SDS011;8595;52.542;11.974;2023-03-16T10:49:47;4.05;;;1.88;;
16957;SDS011;8595;52.542;11.974;2023-03-16T10:52:17;3.13;;;1.30;;
16957;SDS011;8595;52.542;11.974;2023-03-16T10:54:47;5.72;;;1.90;;
16957;SDS011;8595;52.542;11.974;2023-03-16T10:57:21;5.95;;;1.80;;
16957;SDS011;8595;52.542;11.974;2023-03-16T10:59:50;5.68;;;2.22;;
16957;SDS011;8595;52.542;11.974;2023-03-16T11:02:19;9.13;;;2.80;;
16957;SDS011;8595;52.542;11.974;2023-03-16T11:04:49;5.65;;;2.58;;
16957;SDS011;8595;52.542;11.974;2023-03-16T11:07:17;4.63;;;1.77;;
16957;SDS011;8595;52.542;11.974;2023-03-16T11:09:48;3.20;;;2.15;;
16957;SDS011;8595;52.542;11.974;2023-03-16T11:12:20;3.75;;;1.70;;
16957;SDS011;8595;52.542;11.974;2023-03-16T11:14:51;4.03;;;2.00;;
16957;SDS011;8595;52.542;11.974;2023-03-16T11:17:20;4.60;;;1.90;;
16957;SDS011;8595;52.542;11.974;2023-03-16T11:19:54;5.53;;;2.10;;
16957;SDS011;8595;52.542;11.974;2023-03-16T11:22:25;7.80;;;2.28;;
16957;SDS011;8595;52.542;11.974;2023-03-16T11:24:55;5.13;;;2.00;;
16957;SDS011;8595;52.542;11.974;2023-03-16T11:27:34;2.97;;;1.80;;
16957;SDS011;8595;52.542;11.974;2023-03-16T11:30:07;3.15;;;1.80;;
16957;SDS011;8595;52.542;11.974;2023-03-16T11:32:39;3.75;;;1.77;;
16957;SDS011;8595;52.542;11.974;2023-03-16T11:35:10;7.40;;;2.20;;
16957;SDS011;8595;52.542;11.974;2023-03-16T11:37:43;4.00;;;2.00;;
16957;SDS011;8595;52.542;11.974;2023-03-16T11:40:28;3.00;;;1.80;;
16957;SDS011;8595;52.542;11.974;2023-03-16T11:43:07;4.13;;;1.80;;
16957;SDS011;8595;52.542;11.974;2023-03-16T11:45:50;4.90;;;1.80;;
16957;SDS011;8595;52.542;11.974;2023-03-16T11:48:30;4.53;;;2.00;;
16957;SDS011;8595;52.542;11.974;2023-03-16T11:51:03;6.57;;;2.38;;
16957;SDS011;8595;52.542;11.974;2023-03-16T11:53:45;3.50;;;1.88;;
16957;SDS011;8595;52.542;11.974;2023-03-16T11:56:18;3.55;;;1.65;;
16957;SDS011;8595;52.542;11.974;2023-03-16T11:58:54;3.50;;;1.55;;
16957;SDS011;8595;52.542;11.974;2023-03-16T12:01:57;4.10;;;2.20;;
16957;SDS011;8595;52.542;11.974;2023-03-16T12:04:54;3.58;;;1.85;;
16957;SDS011;8595;52.542;11.974;2023-03-16T12:07:37;2.50;;;1.60;;
16957;SDS011;8595;52.542;11.974;2023-03-16T12:10:18;3.78;;;1.55;;
16957;SDS011;8595;52.542;11.974;2023-03-16T12:12:52;4.65;;;1.70;;
16957;SDS011;8595;52.542;11.974;2023-03-16T12:15:29;5.50;;;2.10;;
16957;SDS011;8595;52.542;11.974;2023-03-16T12:18:01;7.70;;;2.45;;
16957;SDS011;8595;52.542;11.974;2023-03-16T12:20:37;5.72;;;1.95;;
16957;SDS011;8595;52.542;11.974;2023-03-16T12:23:09;4.35;;;1.92;;
16957;SDS011;8595;52.542;11.974;2023-03-16T12:25:40;3.30;;;1.77;;
16957;SDS011;8595;52.542;11.974;2023-03-16T12:28:13;3.60;;;2.03;;
16957;SDS011;8595;52.542;11.974;2023-03-16T12:30:48;4.90;;;2.22;;
16957;SDS011;8595;52.542;11.974;2023-03-16T12:33:25;5.95;;;2.00;;
16957;SDS011;8595;52.542;11.974;2023-03-16T12:36:01;3.38;;;1.80;;
16957;SDS011;8595;52.542;11.974;2023-03-16T12:38:36;4.78;;;1.77;;
16957;SDS011;8595;52.542;11.974;2023-03-16T12:41:14;3.70;;;2.20;;
16957;SDS011;8595;52.542;11.974;2023-03-16T12:43:52;5.18;;;2.45;;
16957;SDS011;8595;52.542;11.974;2023-03-16T12:46:35;3.60;;;1.90;;
16957;SDS011;8595;52.542;11.974;2023-03-16T12:49:09;3.92;;;2.03;;
16957;SDS011;8595;52.542;11.974;2023-03-16T12:51:37;3.75;;;1.60;;
16957;SDS011;8595;52.542;11.974;2023-03-16T12:54:06;5.38;;;2.17;;
16957;SDS011;8595;52.542;11.974;2023-03-16T12:56:44;3.97;;;1.92;;
16957;SDS011;8595;52.542;11.974;2023-03-16T12:59:15;3.25;;;2.00;;
16957;SDS011;8595;52.542;11.974;2023-03-16T13:01:47;7.65;;;1.90;;
16957;SDS011;8595;52.542;11.974;2023-03-16T13:04:16;5.10;;;2.10;;
16957;SDS011;8595;52.542;11.974;2023-03-16T13:06:45;4.45;;;1.58;;
16957;SDS011;8595;52.542;11.974;2023-03-16T13:09:16;3.83;;;1.98;;
16957;SDS011;8595;52.542;11.974;2023-03-16T13:11:46;3.90;;;1.70;;
16957;SDS011;8595;52.542;11.974;2023-03-16T13:14:16;3.47;;;1.60;;
16957;SDS011;8595;52.542;11.974;2023-03-16T13:17:03;4.85;;;1.80;;
16957;SDS011;8595;52.542;11.974;2023-03-16T13:19:31;3.50;;;1.60;;
16957;SDS011;8595;52.542;11.974;2023-03-16T13:22:04;2.75;;;1.52;;
16957;SDS011;8595;52.542;11.974;2023-03-16T13:24:48;5.18;;;1.95;;
16957;SDS011;8595;52.542;11.974;2023-03-16T13:27:20;4.00;;;1.67;;
16957;SDS011;8595;52.542;11.974;2023-03-16T13:29:52;4.95;;;2.03;;
16957;SDS011;8595;52.542;11.974;2023-03-16T13:32:22;4.18;;;1.90;;
16957;SDS011;8595;52.542;11.974;2023-03-16T13:34:52;2.72;;;1.67;;
16957;SDS011;8595;52.542;11.974;2023-03-16T13:37:23;4.32;;;2.10;;
16957;SDS011;8595;52.542;11.974;2023-03-16T13:39:52;5.75;;;2.03;;
16957;SDS011;8595;52.542;11.974;2023-03-16T13:42:20;4.68;;;2.08;;
16957;SDS011;8595;52.542;11.974;2023-03-16T13:44:50;4.55;;;2.03;;
16957;SDS011;8595;52.542;11.974;2023-03-16T13:47:18;5.07;;;2.00;;
16957;SDS011;8595;52.542;11.974;2023-03-16T13:49:48;4.13;;;2.30;;
16957;SDS011;8595;52.542;11.974;2023-03-16T13:52:18;5.53;;;2.00;;
16957;SDS011;8595;52.542;11.974;2023-03-16T13:54:49;5.28;;;2.55;;
16957;SDS011;8595;52.542;11.974;2023-03-16T13:57:17;6.38;;;2.47;;
16957;SDS011;8595;52.542;11.974;2023-03-16T13:59:47;4.35;;;2.30;;
16957;SDS011;8595;52.542;11.974;2023-03-16T14:02:15;3.60;;;2.00;;
16957;SDS011;8595;52.542;11.974;2023-03-16T14:04:43;4.72;;;1.80;;
16957;SDS011;8595;52.542;11.974;2023-03-16T14:07:14;2.53;;;1.83;;
16957;SDS011;8595;52.542;11.974;2023-03-16T14:09:42;3.40;;;1.85;;
16957;SDS011;8595;52.542;11.974;2023-03-16T14:12:12;4.93;;;2.60;;
16957;SDS011;8595;52.542;11.974;2023-03-16T14:14:40;6.00;;;2.10;;
16957;SDS011;8595;52.542;11.974;2023-03-16T14:17:09;3.70;;;1.90;;
16957;SDS011;8595;52.542;11.974;2023-03-16T14:19:39;4.22;;;1.90;;
16957;SDS011;8595;52.542;11.974;2023-03-16T14:22:17;3.80;;;1.75;;
16957;SDS011;8595;52.542;11.974;2023-03-16T14:24:50;2.17;;;1.77;;
16957;SDS011;8595;52.542;11.974;2023-03-16T14:27:22;2.20;;;1.48;;
16957;SDS011;8595;52.542;11.974;2023-03-16T14:29:53;2.47;;;1.55;;
16957;SDS011;8595;52.542;11.974;2023-03-16T14:32:25;3.92;;;1.40;;
16957;SDS011;8595;52.542;11.974;2023-03-16T14:35:02;3.60;;;1.73;;
16957;SDS011;8595;52.542;11.974;2023-03-16T14:37:38;4.18;;;1.88;;
16957;SDS011;8595;52.542;11.974;2023-03-16T14:40:06;3.33;;;1.73;;
16957;SDS011;8595;52.542;11.974;2023-03-16T14:42:46;3.00;;;1.65;;
16957;SDS011;8595;52.542;11.974;2023-03-16T14:45:13;2.60;;;1.30;;
16957;SDS011;8595;52.542;11.974;2023-03-16T14:47:42;4.72;;;2.13;;
16957;SDS011;8595;52.542;11.974;2023-03-16T14:50:12;3.75;;;1.98;;
16957;SDS011;8595;52.542;11.974;2023-03-16T14:52:43;3.63;;;1.67;;
16957;SDS011;8595;52.542;11.974;2023-03-16T14:55:11;2.70;;;1.70;;
16957;SDS011;8595;52.542;11.974;2023-03-16T14:57:39;4.25;;;1.88;;
16957;SDS011;8595;52.542;11.974;2023-03-16T15:00:09;3.90;;;1.60;;